Time;durP1;ratioP1;P1;durP2;ratioP2;P2;SDS_P1;SDS_P2;PMS_P1;PMS_P2;Temp;Humidity;BMP_temperature;BMP_pressure;BME280_temperature;BME280_humidity;BME280_pressure;Samples;Min_cycle;Max_cycle;Signal;HPM_P1;HPM_P2
2022/11/29 00:02:24;;;;;;;6.22;3.65;;;;;;;;;;5105265;28;20031;-56
2022/11/29 00:04:50;;;;;;;5.00;3.40;;;;;;;;;;5109651;28;20023;-55
2022/11/29 00:07:16;;;;;;;4.35;3.20;;;;;;;;;;5110349;28;20077;-56
2022/11/29 00:09:41;;;;;;;5.40;3.40;;;;;;;;;;5110242;28;20023;-56
2022/11/29 00:12:11;;;;;;;4.72;3.15;;;;;;;;;;5109386;28;20038;-54
2022/11/29 00:14:37;;;;;;;5.68;3.50;;;;;;;;;;5109641;28;20392;-57
2022/11/29 00:17:04;;;;;;;4.60;3.03;;;;;;;;;;5096041;28;20036;-58
2022/11/29 00:19:31;;;;;;;5.22;2.90;;;;;;;;;;5070871;28;20016;-58
2022/11/29 00:21:57;;;;;;;4.72;3.10;;;;;;;;;;5088852;28;20028;-58
2022/11/29 00:24:23;;;;;;;4.85;3.30;;;;;;;;;;5070811;28;20024;-58
2022/11/29 00:26:49;;;;;;;6.68;3.17;;;;;;;;;;5088985;28;20058;-58
2022/11/29 00:29:15;;;;;;;5.10;3.67;;;;;;;;;;5071282;28;20035;-58
2022/11/29 00:31:41;;;;;;;5.15;3.60;;;;;;;;;;5102722;28;20039;-58
2022/11/29 00:34:09;;;;;;;4.65;2.90;;;;;;;;;;5109083;28;20027;-59
2022/11/29 00:36:35;;;;;;;4.65;2.75;;;;;;;;;;5107843;28;20027;-58
2022/11/29 00:39:01;;;;;;;3.60;2.60;;;;;;;;;;5097130;28;20043;-58
2022/11/29 00:41:27;;;;;;;5.72;2.85;;;;;;;;;;5108981;28;20502;-59
2022/11/29 00:43:54;;;;;;;3.85;2.75;;;;;;;;;;5090407;28;20112;-58
2022/11/29 00:46:20;;;;;;;4.22;2.75;;;;;;;;;;5090848;28;20034;-58
2022/11/29 00:48:46;;;;;;;5.85;2.75;;;;;;;;;;5109650;28;20398;-57
2022/11/29 00:51:12;;;;;;;3.90;2.45;;;;;;;;;;5110191;27;20027;-58
2022/11/29 00:53:39;;;;;;;3.30;2.42;;;;;;;;;;5090009;28;20031;-57
2022/11/29 00:56:06;;;;;;;3.72;2.38;;;;;;;;;;5088028;28;20103;-58
2022/11/29 00:58:32;;;;;;;3.22;2.30;;;;;;;;;;5088430;28;20100;-58
2022/11/29 01:00:58;;;;;;;4.47;2.45;;;;;;;;;;5069800;28;20032;-58
2022/11/29 06:11:14;;;;;;;1.48;1.35;;;;;;;;;;5091019;28;20039;-52
2022/11/29 06:13:58;;;;;;;1.73;1.40;;;;;;;;;;5091254;28;20036;-50
2022/11/29 06:16:24;;;;;;;;;;;;;;;;;;5091392;28;20111;-52
2022/11/29 06:19:00;;;;;;;1.92;1.50;;;;;;;;;;5090927;28;19991;-53
2022/11/29 06:21:58;;;;;;;5.47;1.85;;;;;;;;;;5090562;28;20020;-51
2022/11/29 06:24:36;;;;;;;3.83;1.52;;;;;;;;;;5035938;28;20097;-49
2022/11/29 06:27:15;;;;;;;1.88;1.30;;;;;;;;;;5090812;28;20047;-52
2022/11/29 06:29:41;;;;;;;3.17;1.50;;;;;;;;;;5091008;28;20032;-48
2022/11/29 06:32:25;;;;;;;2.28;1.75;;;;;;;;;;5090909;28;20028;-50
2022/11/29 06:35:07;;;;;;;2.00;1.52;;;;;;;;;;5090906;28;20046;-50
2022/11/29 06:37:33;;;;;;;2.10;1.73;;;;;;;;;;5090769;28;20024;-53
2022/11/29 06:39:59;;;;;;;2.53;1.48;;;;;;;;;;5098971;28;20027;-53
2022/11/29 06:42:25;;;;;;;2.88;1.85;;;;;;;;;;5102298;28;20031;-53
2022/11/29 06:44:51;;;;;;;2.92;1.80;;;;;;;;;;5091418;28;20024;-51
2022/11/29 06:47:22;;;;;;;2.45;1.83;;;;;;;;;;5097245;28;20403;-53
2022/11/29 06:49:50;;;;;;;2.63;1.80;;;;;;;;;;5106605;28;20102;-52
2022/11/29 06:52:29;;;;;;;1.95;1.70;;;;;;;;;;5130197;27;20058;-53
2022/11/29 06:55:06;;;;;;;2.47;1.67;;;;;;;;;;5135622;27;20412;-52
2022/11/29 06:57:44;;;;;;;1.77;1.48;;;;;;;;;;5135501;27;20027;-53
2022/11/29 07:00:10;;;;;;;1.83;1.50;;;;;;;;;;5117412;27;20098;-51
2022/11/29 07:02:36;;;;;;;1.80;1.42;;;;;;;;;;5114194;28;20047;-51
2022/11/29 07:05:08;;;;;;;1.90;1.50;;;;;;;;;;5094295;28;20055;-52
2022/11/29 07:07:34;;;;;;;1.42;1.23;;;;;;;;;;5096794;28;20020;-53
2022/11/29 07:10:01;;;;;;;1.25;1.15;;;;;;;;;;5113583;28;20093;-53
2022/11/29 07:12:27;;;;;;;2.25;1.33;;;;;;;;;;5111288;28;20581;-53
2022/11/29 07:14:53;;;;;;;1.33;1.13;;;;;;;;;;5113795;27;20444;-53
2022/11/29 07:17:22;;;;;;;1.23;1.08;;;;;;;;;;5128239;27;20733;-50
2022/11/29 07:19:56;;;;;;;1.52;1.40;;;;;;;;;;5114509;28;20403;-52
2022/11/29 07:22:40;;;;;;;1.30;1.20;;;;;;;;;;5114831;28;20098;-54
2022/11/29 07:25:21;;;;;;;1.50;0.95;;;;;;;;;;5109943;28;20599;-53
2022/11/29 07:27:53;;;;;;;1.02;0.82;;;;;;;;;;5106282;28;20081;-53
2022/11/29 07:30:20;;;;;;;2.00;0.98;;;;;;;;;;5114514;28;20051;-52
2022/11/29 07:32:55;;;;;;;1.30;1.08;;;;;;;;;;5112173;28;20031;-51
2022/11/29 07:35:27;;;;;;;1.55;1.10;;;;;;;;;;5105878;28;20100;-53
2022/11/29 07:37:56;;;;;;;4.47;2.20;;;;;;;;;;5097664;28;20025;-53
2022/11/29 07:40:25;;;;;;;3.45;2.60;;;;;;;;;;5110206;28;20384;-53
2022/11/29 07:42:54;;;;;;;3.90;2.60;;;;;;;;;;5112964;28;20027;-52
2022/11/29 07:45:28;;;;;;;4.22;3.13;;;;;;;;;;5102857;27;20043;-51
2022/11/29 07:47:54;;;;;;;3.90;2.63;;;;;;;;;;5097030;28;20407;-53
2022/11/29 07:50:21;;;;;;;4.43;2.90;;;;;;;;;;5092988;28;20135;-51
2022/11/29 07:52:47;;;;;;;5.70;3.58;;;;;;;;;;5093512;28;20097;-51
2022/11/29 07:55:14;;;;;;;6.78;4.30;;;;;;;;;;5117907;27;20027;-52
2022/11/29 07:57:40;;;;;;;6.10;3.60;;;;;;;;;;5133525;27;20037;-53
2022/11/29 08:00:07;;;;;;;7.00;4.40;;;;;;;;;;5115514;27;20027;-52
2022/11/29 08:02:33;;;;;;;5.68;3.75;;;;;;;;;;5133577;27;20015;-52
2022/11/29 08:05:00;;;;;;;5.82;4.15;;;;;;;;;;5123953;27;20027;-53
2022/11/29 08:07:26;;;;;;;5.20;3.53;;;;;;;;;;5097423;28;20476;-52
2022/11/29 08:09:53;;;;;;;5.97;3.40;;;;;;;;;;5109393;28;20102;-52
2022/11/29 08:12:19;;;;;;;7.88;4.63;;;;;;;;;;5099820;28;20027;-52
2022/11/29 08:14:45;;;;;;;9.40;4.60;;;;;;;;;;5102803;28;20418;-52
2022/11/29 08:17:11;;;;;;;7.68;4.50;;;;;;;;;;5118696;27;20023;-53
2022/11/29 08:19:37;;;;;;;12.10;6.05;;;;;;;;;;5097683;28;20043;-52
2022/11/29 08:22:03;;;;;;;8.88;4.88;;;;;;;;;;5109040;28;20047;-53
2022/11/29 08:24:29;;;;;;;10.43;4.70;;;;;;;;;;5108663;28;20027;-52
2022/11/29 08:26:55;;;;;;;13.00;6.32;;;;;;;;;;5099034;28;20055;-51
2022/11/29 08:29:21;;;;;;;8.18;4.55;;;;;;;;;;5099965;27;20471;-52
2022/11/29 08:31:52;;;;;;;8.43;4.65;;;;;;;;;;5133030;27;20118;-52
2022/11/29 08:34:18;;;;;;;10.73;5.00;;;;;;;;;;5125998;27;20444;-51
2022/11/29 08:36:44;;;;;;;9.68;4.55;;;;;;;;;;5107307;27;20097;-48
2022/11/29 08:39:10;;;;;;;8.90;4.40;;;;;;;;;;5107457;27;20032;-51
2022/11/29 08:41:36;;;;;;;8.32;3.70;;;;;;;;;;5101344;28;20484;-53
2022/11/29 08:44:02;;;;;;;7.18;4.20;;;;;;;;;;5091822;28;20103;-50
2022/11/29 08:47:34;;;;;;;5.35;3.38;;;;;;;;;;5104911;28;20047;-52
2022/11/29 08:49:14;;;;;;;4.50;2.75;;;;;;;;;;5110910;28;20032;-54
2022/11/29 08:51:40;;;;;;;3.83;2.33;;;;;;;;;;5113572;27;20015;-54
2022/11/29 08:54:06;;;;;;;4.07;2.42;;;;;;;;;;5106540;27;20108;-52
2022/11/29 08:56:32;;;;;;;3.80;2.03;;;;;;;;;;5105565;27;20027;-53
2022/11/29 08:58:58;;;;;;;4.43;2.10;;;;;;;;;;5100646;27;20031;-50
2022/11/29 09:01:24;;;;;;;2.58;1.80;;;;;;;;;;5099051;27;20027;-54
2022/11/29 09:03:59;;;;;;;2.58;1.70;;;;;;;;;;5096951;28;20466;-53
2022/11/29 09:06:26;;;;;;;2.53;1.50;;;;;;;;;;5098931;28;20422;-53
2022/11/29 09:08:55;;;;;;;1.98;1.45;;;;;;;;;;5099009;28;20028;-53
2022/11/29 09:11:22;;;;;;;1.67;1.05;;;;;;;;;;5099949;27;20026;-53
2022/11/29 09:13:49;;;;;;;1.45;1.23;;;;;;;;;;5079185;28;20442;-51
2022/11/29 09:16:19;;;;;;;2.35;1.10;;;;;;;;;;5100797;28;20115;-52
2022/11/29 09:18:45;;;;;;;1.50;1.25;;;;;;;;;;5099767;28;20095;-52
2022/11/29 09:21:12;;;;;;;2.25;1.48;;;;;;;;;;5100450;27;20036;-51
2022/11/29 09:23:40;;;;;;;1.80;1.30;;;;;;;;;;5099362;27;20030;-52
2022/11/29 09:26:07;;;;;;;2.55;1.75;;;;;;;;;;5103778;27;20139;-52
2022/11/29 09:28:33;;;;;;;3.00;1.52;;;;;;;;;;5102167;27;20102;-53
2022/11/29 09:31:09;;;;;;;4.22;2.40;;;;;;;;;;5103932;27;20036;-51
2022/11/29 09:33:35;;;;;;;4.47;2.20;;;;;;;;;;5099056;27;20106;-51
2022/11/29 09:36:02;;;;;;;3.35;1.88;;;;;;;;;;5102411;27;20050;-50
2022/11/29 09:38:28;;;;;;;2.97;2.03;;;;;;;;;;5098648;28;20036;-53
2022/11/29 09:41:02;;;;;;;2.83;1.83;;;;;;;;;;5101536;28;20090;-52
2022/11/29 09:43:28;;;;;;;3.08;2.08;;;;;;;;;;5098122;28;20034;-51
2022/11/29 09:46:24;;;;;;;3.13;2.15;;;;;;;;;;5101447;28;20023;-53
2022/11/29 09:48:59;;;;;;;4.93;2.70;;;;;;;;;;5043023;28;20064;-52
2022/11/29 09:51:39;;;;;;;4.40;2.67;;;;;;;;;;5099709;28;20490;-52
2022/11/29 09:54:05;;;;;;;3.97;2.25;;;;;;;;;;5098808;28;20660;-51
2022/11/29 09:56:35;;;;;;;2.78;2.22;;;;;;;;;;5101515;27;20035;-48
2022/11/29 09:59:06;;;;;;;2.45;1.63;;;;;;;;;;5099875;28;20032;-54
2022/11/29 10:01:36;;;;;;;2.38;1.45;;;;;;;;;;5102090;28;20035;-52
2022/11/29 10:04:08;;;;;;;2.75;1.48;;;;;;;;;;5099022;28;20539;-53
2022/11/29 10:06:43;;;;;;;2.60;1.50;;;;;;;;;;5102580;28;20039;-48
2022/11/29 10:09:17;;;;;;;1.35;1.00;;;;;;;;;;5098885;28;20051;-53
2022/11/29 10:11:43;;;;;;;1.73;1.13;;;;;;;;;;5101427;28;20051;-53
2022/11/29 10:14:38;;;;;;;1.80;1.05;;;;;;;;;;5099592;28;20081;-52
2022/11/29 10:17:11;;;;;;;0.88;0.77;;;;;;;;;;5084912;28;20075;-53
2022/11/29 10:19:40;;;;;;;1.08;0.98;;;;;;;;;;5098043;28;20035;-53
2022/11/29 10:22:09;;;;;;;1.00;0.82;;;;;;;;;;5100175;28;20043;-52
2022/11/29 10:24:37;;;;;;;1.58;1.15;;;;;;;;;;5096496;28;20032;-51
2022/11/29 10:27:18;;;;;;;1.55;0.88;;;;;;;;;;5100084;27;20035;-52
2022/11/29 10:29:49;;;;;;;0.90;0.70;;;;;;;;;;5105417;27;20032;-52
2022/11/29 10:32:15;;;;;;;2.28;0.90;;;;;;;;;;5102982;28;20051;-54
2022/11/29 10:34:42;;;;;;;1.45;1.10;;;;;;;;;;5103259;28;20040;-51
2022/11/29 10:37:12;;;;;;;2.75;1.05;;;;;;;;;;5102278;28;20039;-53
2022/11/29 10:39:44;;;;;;;1.48;0.98;;;;;;;;;;5102799;27;20104;-53
2022/11/29 10:45:04;;;;;;;0.80;0.80;;;;;;;;;;5101821;27;20051;-53
2022/11/29 10:47:31;;;;;;;2.28;1.02;;;;;;;;;;5101823;27;20035;-53
2022/11/29 10:49:57;;;;;;;1.13;0.90;;;;;;;;;;5101330;27;20032;-52
2022/11/29 10:52:23;;;;;;;1.45;0.90;;;;;;;;;;5100349;28;20038;-49
2022/11/29 10:54:53;;;;;;;1.40;0.90;;;;;;;;;;5098239;27;20055;-51
2022/11/29 10:57:20;;;;;;;1.02;0.80;;;;;;;;;;5102650;28;20038;-54
2022/11/29 11:00:06;;;;;;;1.50;0.90;;;;;;;;;;5103196;27;20515;-52
2022/11/29 11:02:33;;;;;;;1.48;0.80;;;;;;;;;;5100960;28;20040;-51
2022/11/29 11:05:00;;;;;;;1.35;0.80;;;;;;;;;;5099659;27;20056;-51
2022/11/29 11:07:32;;;;;;;1.80;0.90;;;;;;;;;;5102703;28;20027;-53
2022/11/29 11:09:59;;;;;;;1.05;0.68;;;;;;;;;;5101819;28;20023;-53
2022/11/29 11:12:29;;;;;;;0.70;0.70;;;;;;;;;;5103200;27;20035;-52
2022/11/29 11:15:14;;;;;;;1.17;0.90;;;;;;;;;;5097733;28;20019;-51
2022/11/29 11:17:53;;;;;;;0.90;0.80;;;;;;;;;;5101694;27;20070;-54
2022/11/29 11:20:21;;;;;;;1.10;0.82;;;;;;;;;;5104320;27;20027;-49
2022/11/29 11:22:58;;;;;;;1.20;0.90;;;;;;;;;;5102630;27;20050;-52
2022/11/29 11:25:24;;;;;;;1.83;0.82;;;;;;;;;;5101662;27;20085;-53
2022/11/29 11:27:50;;;;;;;1.95;0.70;;;;;;;;;;5103163;28;20040;-53
2022/11/29 11:30:24;;;;;;;2.45;0.82;;;;;;;;;;5103660;28;20250;-51
2022/11/29 11:33:26;;;;;;;1.20;0.80;;;;;;;;;;5104322;27;20043;-50
2022/11/29 11:36:03;;;;;;;1.17;0.70;;;;;;;;;;5022084;28;20485;-51
2022/11/29 11:38:30;;;;;;;0.98;0.70;;;;;;;;;;5091027;28;20905;-50
2022/11/29 11:41:02;;;;;;;2.35;0.80;;;;;;;;;;5104562;27;20502;-52
2022/11/29 11:43:28;;;;;;;1.70;0.63;;;;;;;;;;5097595;28;20096;-54
2022/11/29 11:45:54;;;;;;;0.60;0.60;;;;;;;;;;5101914;27;20486;-49
2022/11/29 11:48:21;;;;;;;0.85;0.68;;;;;;;;;;5098642;27;20032;-52
2022/11/29 11:50:55;;;;;;;2.08;1.00;;;;;;;;;;5102312;27;20402;-49
2022/11/29 11:53:26;;;;;;;1.35;0.60;;;;;;;;;;5097397;28;20509;-51
2022/11/29 11:56:12;;;;;;;0.95;0.70;;;;;;;;;;5100490;27;20020;-50
2022/11/29 11:58:44;;;;;;;1.30;0.90;;;;;;;;;;5103020;27;20100;-51
2022/11/29 12:01:13;;;;;;;2.17;1.00;;;;;;;;;;5104410;27;20034;-50
2022/11/29 12:03:58;;;;;;;1.00;0.77;;;;;;;;;;5101573;27;20027;-51
2022/11/29 12:06:28;;;;;;;1.27;0.88;;;;;;;;;;5103533;27;20023;-51
2022/11/29 12:08:57;;;;;;;2.35;0.68;;;;;;;;;;5101783;27;20077;-53
2022/11/29 12:11:24;;;;;;;1.30;1.15;;;;;;;;;;5100933;27;20089;-51
2022/11/29 12:13:53;;;;;;;0.60;0.60;;;;;;;;;;5087933;28;20043;-49
2022/11/29 12:16:26;;;;;;;1.08;0.80;;;;;;;;;;5088001;28;20024;-52
2022/11/29 12:18:57;;;;;;;0.90;0.70;;;;;;;;;;5094016;28;20020;-53
2022/11/29 12:21:25;;;;;;;1.90;0.75;;;;;;;;;;5087529;28;20107;-51
2022/11/29 12:24:03;;;;;;;1.38;0.95;;;;;;;;;;5088900;28;20031;-51
2022/11/29 12:26:31;;;;;;;2.65;1.58;;;;;;;;;;5091785;28;20368;-53
2022/11/29 12:28:58;;;;;;;2.80;1.50;;;;;;;;;;5086738;28;21313;-53
2022/11/29 12:31:36;;;;;;;4.03;1.98;;;;;;;;;;5092394;28;20027;-53
2022/11/29 12:34:11;;;;;;;2.63;1.50;;;;;;;;;;5089371;28;20024;-52
2022/11/29 12:36:43;;;;;;;2.85;1.55;;;;;;;;;;5092123;28;20454;-51
2022/11/29 12:39:25;;;;;;;3.70;1.30;;;;;;;;;;5088496;28;20100;-52
2022/11/29 12:42:14;;;;;;;1.77;1.00;;;;;;;;;;5088439;28;20376;-53
2022/11/29 12:44:43;;;;;;;1.67;0.90;;;;;;;;;;5089050;28;20024;-53
2022/11/29 12:47:09;;;;;;;1.77;1.00;;;;;;;;;;5086276;28;20064;-53
2022/11/29 12:49:53;;;;;;;1.73;1.00;;;;;;;;;;5090228;28;20399;-50
2022/11/29 12:52:26;;;;;;;2.08;1.23;;;;;;;;;;5085982;28;20153;-54
2022/11/29 12:54:52;;;;;;;2.13;1.38;;;;;;;;;;5087010;28;20073;-54
2022/11/29 12:57:23;;;;;;;1.27;0.85;;;;;;;;;;5092888;28;20444;-52
2022/11/29 12:59:59;;;;;;;1.08;0.90;;;;;;;;;;5095214;28;20106;-53
2022/11/29 13:02:44;;;;;;;0.88;0.80;;;;;;;;;;5088502;28;20081;-54
2022/11/29 13:05:10;;;;;;;1.15;0.70;;;;;;;;;;5085970;28;20073;-55
2022/11/29 13:07:43;;;;;;;1.00;0.68;;;;;;;;;;5087751;28;20747;-52
2022/11/29 13:10:19;;;;;;;1.40;0.80;;;;;;;;;;5091669;28;20411;-53
2022/11/29 13:13:05;;;;;;;1.52;0.85;;;;;;;;;;5100788;27;20047;-53
2022/11/29 13:15:31;;;;;;;1.17;0.80;;;;;;;;;;5049423;28;20182;-49
2022/11/29 13:18:02;;;;;;;1.48;0.85;;;;;;;;;;5101735;28;20546;-51
2022/11/29 13:20:35;;;;;;;0.60;0.60;;;;;;;;;;5106217;27;20409;-53
2022/11/29 13:23:12;;;;;;;0.95;0.70;;;;;;;;;;5101973;28;20036;-51
2022/11/29 13:25:40;;;;;;;1.05;0.68;;;;;;;;;;5100278;27;20115;-52
2022/11/29 13:28:20;;;;;;;1.05;0.70;;;;;;;;;;5101792;27;20118;-52
2022/11/29 13:30:47;;;;;;;1.20;0.70;;;;;;;;;;5103272;27;20039;-52
2022/11/29 13:33:13;;;;;;;0.63;0.60;;;;;;;;;;5097417;28;20568;-52
2022/11/29 13:35:39;;;;;;;0.98;0.68;;;;;;;;;;5103269;28;20043;-51
2022/11/29 13:38:14;;;;;;;1.30;0.70;;;;;;;;;;5102523;28;20149;-49
2022/11/29 13:40:49;;;;;;;0.88;0.75;;;;;;;;;;5105772;28;20077;-53
2022/11/29 13:43:20;;;;;;;0.75;0.60;;;;;;;;;;5103227;27;20023;-52
2022/11/29 13:45:57;;;;;;;2.90;0.50;;;;;;;;;;5103946;28;20501;-52
2022/11/29 13:48:33;;;;;;;0.63;0.63;;;;;;;;;;5102079;27;20062;-49
2022/11/29 13:51:19;;;;;;;0.77;0.70;;;;;;;;;;5102510;28;20031;-53
2022/11/29 13:53:45;;;;;;;1.50;0.68;;;;;;;;;;5102784;27;20035;-53
2022/11/29 13:56:24;;;;;;;1.10;0.70;;;;;;;;;;5104429;28;20038;-53
2022/11/29 13:58:54;;;;;;;0.85;0.73;;;;;;;;;;5103532;28;20059;-52
2022/11/29 14:01:21;;;;;;;0.60;0.50;;;;;;;;;;5104089;28;20048;-52
2022/11/29 14:03:59;;;;;;;0.75;0.70;;;;;;;;;;5100591;28;20057;-52
2022/11/29 14:06:32;;;;;;;0.73;0.63;;;;;;;;;;5101805;28;20034;-53
2022/11/29 14:09:13;;;;;;;0.90;0.60;;;;;;;;;;5100233;28;20394;-53
2022/11/29 14:11:42;;;;;;;0.70;0.70;;;;;;;;;;5102341;28;20059;-54
2022/11/29 14:14:16;;;;;;;0.95;0.70;;;;;;;;;;5099417;28;20092;-51
2022/11/29 14:16:42;;;;;;;0.65;0.65;;;;;;;;;;5102209;28;20069;-54
2022/11/29 14:19:08;;;;;;;0.70;0.55;;;;;;;;;;5100189;28;20046;-53
2022/11/29 14:21:53;;;;;;;1.23;0.50;;;;;;;;;;5101530;28;20784;-50
2022/11/29 14:24:45;;;;;;;0.60;0.60;;;;;;;;;;5100503;28;20394;-53
2022/11/29 14:27:11;;;;;;;0.77;0.73;;;;;;;;;;5069959;28;20047;-53
2022/11/29 14:29:51;;;;;;;0.60;0.50;;;;;;;;;;5101870;28;20039;-53
2022/11/29 14:32:24;;;;;;;2.15;1.20;;;;;;;;;;5099402;28;20038;-53
2022/11/29 14:35:17;;;;;;;2.47;1.33;;;;;;;;;;5100080;28;20035;-51
2022/11/29 14:38:02;;;;;;;16.48;5.90;;;;;;;;;;5099477;28;20100;-51
2022/11/29 14:40:34;;;;;;;11.35;4.38;;;;;;;;;;5101737;28;20020;-52
2022/11/29 14:43:01;;;;;;;8.07;3.50;;;;;;;;;;5103510;28;20559;-51
2022/11/29 14:45:28;;;;;;;7.97;3.47;;;;;;;;;;5095011;28;20024;-51
2022/11/29 14:47:55;;;;;;;6.03;2.63;;;;;;;;;;5110777;28;20062;-54
2022/11/29 14:50:29;;;;;;;5.18;2.30;;;;;;;;;;5111135;28;20024;-50
2022/11/29 14:52:55;;;;;;;4.72;2.15;;;;;;;;;;5108731;28;20036;-52
2022/11/29 14:55:24;;;;;;;3.47;1.85;;;;;;;;;;5099375;28;20032;-53
2022/11/29 14:57:50;;;;;;;2.47;1.13;;;;;;;;;;5106411;28;20094;-54
2022/11/29 15:00:24;;;;;;;2.53;1.10;;;;;;;;;;5109022;28;20494;-52
2022/11/29 15:02:50;;;;;;;;;;;;;;;;;;5101848;28;20016;-51
2022/11/29 15:05:16;;;;;;;1.95;0.98;;;;;;;;;;5107241;28;19952;-52
2022/11/29 15:07:44;;;;;;;1.63;0.90;;;;;;;;;;5109779;28;20372;-53
2022/11/29 15:10:15;;;;;;;1.75;0.90;;;;;;;;;;5102216;28;20507;-52
2022/11/29 15:12:42;;;;;;;1.10;0.65;;;;;;;;;;5090269;28;20036;-53
2022/11/29 15:15:20;;;;;;;0.70;0.60;;;;;;;;;;5113351;27;20042;-54
2022/11/29 15:18:01;;;;;;;1.48;0.75;;;;;;;;;;5100569;28;20039;-49
2022/11/29 15:20:33;;;;;;;1.25;0.65;;;;;;;;;;5097163;28;20077;-53
2022/11/29 15:23:01;;;;;;;1.05;0.60;;;;;;;;;;5106679;28;20031;-52
2022/11/29 15:25:29;;;;;;;1.85;0.75;;;;;;;;;;5106005;28;20038;-52
2022/11/29 15:28:00;;;;;;;1.08;0.70;;;;;;;;;;5094021;28;20024;-52
2022/11/29 15:30:30;;;;;;;0.40;0.40;;;;;;;;;;5113342;28;20047;-53
2022/11/29 15:32:57;;;;;;;0.90;0.60;;;;;;;;;;5121609;27;20023;-53
2022/11/29 15:35:24;;;;;;;0.60;0.57;;;;;;;;;;5120091;27;20173;-50
2022/11/29 15:37:51;;;;;;;0.93;0.65;;;;;;;;;;5111009;28;20020;-53
2022/11/29 15:40:19;;;;;;;1.30;0.65;;;;;;;;;;5114499;28;20130;-52
2022/11/29 15:42:49;;;;;;;0.52;0.50;;;;;;;;;;5114421;28;20051;-54
2022/11/29 15:45:21;;;;;;;0.95;0.70;;;;;;;;;;5113609;28;20031;-52
2022/11/29 15:47:47;;;;;;;1.10;0.90;;;;;;;;;;5103873;27;20055;-53
2022/11/29 15:50:39;;;;;;;1.48;0.73;;;;;;;;;;5113919;27;20458;-50
2022/11/29 15:53:07;;;;;;;1.55;1.10;;;;;;;;;;5106863;28;20047;-50
2022/11/29 15:55:34;;;;;;;1.88;0.93;;;;;;;;;;5111890;28;20031;-54
2022/11/29 15:58:01;;;;;;;1.58;1.00;;;;;;;;;;5104882;28;20168;-52
2022/11/29 16:00:29;;;;;;;2.17;1.10;;;;;;;;;;5098260;28;20031;-52
2022/11/29 16:02:55;;;;;;;1.90;1.15;;;;;;;;;;5091956;28;20105;-53
2022/11/29 16:05:23;;;;;;;1.63;1.00;;;;;;;;;;5092478;28;20056;-53
2022/11/29 16:07:51;;;;;;;1.90;1.40;;;;;;;;;;5103484;28;20521;-53
2022/11/29 16:10:21;;;;;;;1.40;1.20;;;;;;;;;;5112393;28;20108;-53
2022/11/29 16:12:51;;;;;;;1.55;1.08;;;;;;;;;;5095222;28;20032;-53
2022/11/29 16:15:34;;;;;;;2.15;1.33;;;;;;;;;;5093261;28;20048;-50
2022/11/29 16:18:04;;;;;;;1.67;1.08;;;;;;;;;;5079178;28;20066;-53
2022/11/29 16:20:30;;;;;;;2.60;1.33;;;;;;;;;;5090671;28;20032;-53
2022/11/29 16:23:10;;;;;;;1.77;1.30;;;;;;;;;;5092678;28;20498;-54
2022/11/29 16:25:52;;;;;;;1.25;0.93;;;;;;;;;;5091634;28;20028;-55
2022/11/29 16:28:18;;;;;;;1.05;0.80;;;;;;;;;;5093069;28;20035;-55
2022/11/29 16:30:44;;;;;;;4.85;2.20;;;;;;;;;;5092733;28;20052;-51
2022/11/29 16:33:18;;;;;;;3.58;1.83;;;;;;;;;;5091068;28;20031;-53
2022/11/29 16:35:44;;;;;;;2.63;2.03;;;;;;;;;;5075310;28;20127;-52
2022/11/29 16:38:17;;;;;;;3.67;1.70;;;;;;;;;;5092204;28;20067;-52
2022/11/29 16:40:59;;;;;;;2.63;1.70;;;;;;;;;;5083491;28;20036;-51
2022/11/29 16:43:45;;;;;;;1.92;1.40;;;;;;;;;;5087130;28;20044;-51
2022/11/29 16:46:26;;;;;;;1.35;1.10;;;;;;;;;;5077199;28;20149;-52
2022/11/29 16:48:52;;;;;;;1.02;0.90;;;;;;;;;;5084946;28;22007;-53
2022/11/29 16:51:22;;;;;;;1.30;1.10;;;;;;;;;;5076144;28;20105;-50
2022/11/29 16:53:51;;;;;;;1.38;1.00;;;;;;;;;;5085397;28;20028;-51
2022/11/29 16:56:22;;;;;;;1.45;1.00;;;;;;;;;;5080914;28;20099;-52
2022/11/29 16:58:55;;;;;;;1.67;1.00;;;;;;;;;;5077177;28;20040;-52
2022/11/29 17:01:25;;;;;;;0.90;0.80;;;;;;;;;;5082716;28;20017;-49
2022/11/29 17:03:52;;;;;;;1.20;0.95;;;;;;;;;;5079368;28;20024;-52
2022/11/29 17:06:21;;;;;;;1.00;0.90;;;;;;;;;;5079744;28;20062;-52
2022/11/29 17:08:47;;;;;;;0.90;0.90;;;;;;;;;;5090589;28;20110;-49
2022/11/29 17:11:13;;;;;;;1.63;1.13;;;;;;;;;;5095794;28;20152;-51
2022/11/29 17:13:39;;;;;;;1.45;1.05;;;;;;;;;;5104943;28;20028;-53
2022/11/29 17:16:10;;;;;;;1.23;1.13;;;;;;;;;;5099983;28;20032;-50
2022/11/29 17:18:37;;;;;;;1.60;1.17;;;;;;;;;;5104661;28;20024;-52
2022/11/29 17:21:03;;;;;;;1.65;1.30;;;;;;;;;;5110481;28;20077;-52
2022/11/29 17:23:30;;;;;;;2.10;1.15;;;;;;;;;;5109425;27;20449;-52
2022/11/29 17:25:57;;;;;;;2.40;1.70;;;;;;;;;;5110859;28;20020;-53
2022/11/29 17:28:23;;;;;;;2.70;2.13;;;;;;;;;;5101042;28;20060;-52
2022/11/29 17:30:49;;;;;;;4.80;3.17;;;;;;;;;;5101825;28;20599;-53
2022/11/29 17:33:15;;;;;;;6.82;4.03;;;;;;;;;;5109944;28;20035;-52
2022/11/29 17:35:41;;;;;;;7.28;3.97;;;;;;;;;;5105258;28;20039;-52
2022/11/29 17:38:07;;;;;;;7.47;3.92;;;;;;;;;;5104930;27;20114;-52
2022/11/29 17:40:33;;;;;;;4.25;3.20;;;;;;;;;;5103505;28;20095;-52
2022/11/29 17:42:59;;;;;;;4.82;3.20;;;;;;;;;;5104915;28;20022;-56
2022/11/29 17:45:25;;;;;;;3.75;2.47;;;;;;;;;;5084252;28;20960;-53
2022/11/29 17:47:51;;;;;;;2.83;2.22;;;;;;;;;;5081467;28;20668;-49
2022/11/29 17:50:18;;;;;;;3.85;2.55;;;;;;;;;;5093211;28;20553;-54
2022/11/29 17:52:44;;;;;;;4.22;2.65;;;;;;;;;;5078627;28;20038;-53
2022/11/29 17:55:10;;;;;;;3.72;2.60;;;;;;;;;;5092837;28;20028;-52
2022/11/29 17:57:36;;;;;;;3.13;1.98;;;;;;;;;;5077697;28;20030;-53
2022/11/29 18:00:06;;;;;;;2.88;2.08;;;;;;;;;;5079574;28;20067;-53
2022/11/29 18:02:33;;;;;;;3.53;2.30;;;;;;;;;;5077936;28;20143;-52
2022/11/29 18:04:59;;;;;;;2.17;1.63;;;;;;;;;;5075295;28;20042;-53
2022/11/29 18:07:25;;;;;;;2.92;1.60;;;;;;;;;;5055348;28;20027;-53
2022/11/29 18:09:51;;;;;;;2.85;1.73;;;;;;;;;;5083076;28;20027;-52
2022/11/29 18:12:18;;;;;;;2.92;1.50;;;;;;;;;;5077288;28;20506;-52
2022/11/29 18:14:44;;;;;;;2.00;1.30;;;;;;;;;;5076898;28;21164;-53
2022/11/29 18:17:10;;;;;;;2.42;1.33;;;;;;;;;;5077981;28;20098;-51
2022/11/29 18:19:37;;;;;;;2.78;1.27;;;;;;;;;;5076378;28;20027;-51
2022/11/29 18:22:03;;;;;;;1.95;1.40;;;;;;;;;;5090272;28;20411;-52
2022/11/29 18:24:29;;;;;;;1.63;1.10;;;;;;;;;;5080885;28;20517;-52
2022/11/29 18:26:55;;;;;;;1.80;1.40;;;;;;;;;;5090747;28;20020;-55
2022/11/29 18:29:22;;;;;;;2.20;1.30;;;;;;;;;;5099981;28;20028;-53
2022/11/29 18:31:48;;;;;;;3.00;1.50;;;;;;;;;;5099459;28;20027;-53
2022/11/29 18:34:14;;;;;;;3.17;1.50;;;;;;;;;;5096557;28;20024;-53
2022/11/29 18:36:41;;;;;;;2.03;1.30;;;;;;;;;;5095369;28;20020;-52
2022/11/29 18:39:09;;;;;;;2.25;1.38;;;;;;;;;;5107381;28;20051;-51
2022/11/29 18:41:35;;;;;;;2.20;1.50;;;;;;;;;;5106996;28;20066;-53
2022/11/29 18:44:06;;;;;;;1.95;1.30;;;;;;;;;;5094737;28;20012;-53
2022/11/29 18:46:34;;;;;;;2.03;1.42;;;;;;;;;;5104762;28;20058;-53
2022/11/29 18:49:01;;;;;;;3.00;1.60;;;;;;;;;;5108462;28;20068;-53
2022/11/29 18:51:27;;;;;;;2.17;1.40;;;;;;;;;;5105317;28;20517;-53
2022/11/29 18:53:53;;;;;;;2.70;1.75;;;;;;;;;;5080438;28;20028;-53
2022/11/29 18:56:21;;;;;;;2.75;1.60;;;;;;;;;;5096549;28;20031;-53
2022/11/29 18:58:51;;;;;;;2.72;1.70;;;;;;;;;;5105329;28;20023;-53
2022/11/29 19:01:18;;;;;;;3.05;1.48;;;;;;;;;;5098106;28;20383;-51
2022/11/29 19:03:46;;;;;;;2.75;1.40;;;;;;;;;;5102395;28;20035;-53
2022/11/29 19:06:15;;;;;;;2.60;1.55;;;;;;;;;;5096186;28;20510;-52
2022/11/29 19:08:42;;;;;;;2.38;1.35;;;;;;;;;;5098824;28;20027;-53
2022/11/29 19:11:09;;;;;;;1.85;1.40;;;;;;;;;;5098210;28;20032;-54
2022/11/29 19:13:35;;;;;;;2.22;1.65;;;;;;;;;;5099815;28;20039;-54
2022/11/29 19:16:02;;;;;;;2.38;1.58;;;;;;;;;;5099060;28;20104;-53
2022/11/29 19:18:28;;;;;;;1.75;1.30;;;;;;;;;;5099807;28;20059;-52
2022/11/29 19:20:54;;;;;;;2.08;1.45;;;;;;;;;;5102217;28;20016;-50
2022/11/29 19:23:20;;;;;;;1.67;1.27;;;;;;;;;;5095857;28;20364;-51
2022/11/29 19:25:46;;;;;;;1.00;1.00;;;;;;;;;;5107626;28;20019;-51
2022/11/29 19:28:12;;;;;;;1.92;1.52;;;;;;;;;;5101555;28;20031;-52
2022/11/29 19:30:38;;;;;;;1.83;1.27;;;;;;;;;;5100982;28;20026;-53
2022/11/29 19:33:04;;;;;;;2.40;1.38;;;;;;;;;;5103417;28;20019;-51
2022/11/29 19:35:30;;;;;;;2.20;1.20;;;;;;;;;;5100115;28;20028;-53
2022/11/29 19:37:56;;;;;;;1.63;1.40;;;;;;;;;;5099443;28;20080;-50
2022/11/29 19:40:22;;;;;;;2.08;1.30;;;;;;;;;;5099523;28;20079;-52
2022/11/29 19:42:49;;;;;;;2.03;1.30;;;;;;;;;;5109387;28;20060;-54
2022/11/29 19:45:15;;;;;;;2.00;1.50;;;;;;;;;;5087849;28;20077;-53
2022/11/29 19:47:41;;;;;;;3.78;1.98;;;;;;;;;;5090677;28;20441;-54
2022/11/29 19:50:07;;;;;;;2.92;1.80;;;;;;;;;;5104352;28;20110;-52
2022/11/29 19:52:33;;;;;;;2.75;1.55;;;;;;;;;;5109220;28;20094;-50
2022/11/29 19:54:59;;;;;;;2.40;1.60;;;;;;;;;;5107757;28;20028;-53
2022/11/29 19:57:26;;;;;;;2.95;1.90;;;;;;;;;;5104745;28;20452;-50
2022/11/29 19:59:52;;;;;;;2.65;1.70;;;;;;;;;;5080947;28;20018;-53
2022/11/29 20:02:18;;;;;;;2.63;1.70;;;;;;;;;;5094432;28;20525;-51
2022/11/29 20:04:47;;;;;;;2.90;1.80;;;;;;;;;;5093111;28;20020;-53
2022/11/29 20:07:13;;;;;;;2.25;1.60;;;;;;;;;;5077649;28;20030;-52
2022/11/29 20:09:39;;;;;;;2.83;1.88;;;;;;;;;;5086489;28;20670;-52
2022/11/29 20:12:05;;;;;;;3.25;1.90;;;;;;;;;;5095207;28;20043;-53